Time;durP1;ratioP1;P1;durP2;ratioP2;P2;SDS_P1;SDS_P2;PMS_P1;PMS_P2;Temp;Humidity;BMP_temperature;BMP_pressure;BME280_temperature;BME280_humidity;BME280_pressure;Samples;Min_cycle;Max_cycle;Signal;HPM_P1;HPM_P2
2024/01/14 00:00:54;;;;;;;5.47;3.60;;;;;;;18.71;38.55;101497.97;4981667;28;96817;-88
2024/01/14 00:03:20;;;;;;;5.75;3.83;;;;;;;18.71;38.47;101503.25;4984057;28;100165;-88
2024/01/14 00:05:45;;;;;;;7.38;3.33;;;;;;;18.71;38.66;101494.47;4988157;28;98944;-88
2024/01/14 00:08:11;;;;;;;5.28;3.63;;;;;;;18.71;38.65;101495.31;4979750;28;98305;-88
2024/01/14 00:10:36;;;;;;;6.95;4.50;;;;;;;18.70;38.68;101490.94;4987626;28;96842;-87
2024/01/14 00:13:01;;;;;;;5.85;4.18;;;;;;;18.71;38.67;101482.09;4981792;28;122033;-88
2024/01/14 00:15:27;;;;;;;5.45;3.42;;;;;;;18.71;38.77;101479.47;4972368;28;99937;-88
2024/01/14 00:17:52;;;;;;;5.72;3.90;;;;;;;18.71;38.86;101486.53;4967687;28;96834;-87
2024/01/14 00:20:18;;;;;;;6.15;3.35;;;;;;;18.71;38.64;101481.25;4984370;28;96962;-87
2024/01/14 00:22:43;;;;;;;6.47;4.20;;;;;;;18.71;38.51;101475.97;4983035;28;97982;-87
2024/01/14 00:25:11;;;;;;;6.75;4.30;;;;;;;18.71;38.48;101479.47;4986551;28;98458;-87
2024/01/14 00:27:37;;;;;;;5.85;4.45;;;;;;;18.71;38.58;101479.47;4992581;28;97138;-87
2024/01/14 00:30:03;;;;;;;6.28;3.63;;;;;;;18.70;38.85;101467.16;4965994;28;96921;-87
2024/01/14 00:32:28;;;;;;;5.90;3.67;;;;;;;18.71;38.32;101455.69;4966161;28;98507;-87
2024/01/14 00:34:54;;;;;;;6.13;4.00;;;;;;;18.71;38.57;101458.31;4970897;28;99813;-87
2024/01/14 00:37:19;;;;;;;5.78;3.67;;;;;;;18.70;38.75;101453.94;4999518;28;96864;-88
2024/01/14 00:39:45;;;;;;;5.53;3.42;;;;;;;18.71;38.38;101455.69;4984604;28;96871;-88
2024/01/14 00:42:10;;;;;;;5.88;3.53;;;;;;;18.69;38.65;101452.19;4980945;28;98730;-87
2024/01/14 00:44:36;;;;;;;5.93;3.65;;;;;;;18.71;38.67;101466.25;4988231;28;97297;-88
2024/01/14 00:47:01;;;;;;;7.00;3.60;;;;;;;18.72;38.77;101459.22;4981373;28;97135;-88
2024/01/14 00:49:26;;;;;;;7.47;4.03;;;;;;;18.69;38.48;101449.53;4969692;28;97126;-87
2024/01/14 00:51:52;;;;;;;5.30;3.60;;;;;;;18.71;38.58;101446.88;4964896;28;115445;-87
2024/01/14 00:54:17;;;;;;;5.88;4.30;;;;;;;18.71;38.55;101450.41;4967228;28;99157;-87
2024/01/14 00:56:43;;;;;;;6.05;3.53;;;;;;;18.70;38.40;101448.66;4972638;28;96779;-88
2024/01/14 00:59:09;;;;;;;5.97;3.58;;;;;;;18.72;38.53;101444.25;4986849;28;96919;-87
2024/01/14 01:01:34;;;;;;;6.80;4.95;;;;;;;18.71;38.42;101449.53;4983621;28;97777;-88
2024/01/14 01:04:00;;;;;;;6.93;3.80;;;;;;;18.70;38.45;101448.66;4978538;28;99223;-88
2024/01/14 01:06:25;;;;;;;6.78;4.30;;;;;;;18.70;38.41;101448.66;4988488;28;97046;-87
2024/01/14 01:08:51;;;;;;;6.90;4.07;;;;;;;18.69;38.59;101438.97;4973081;28;96725;-87
2024/01/14 01:11:18;;;;;;;7.47;4.70;;;;;;;18.71;38.34;101442.47;4964707;28;98100;-88
2024/01/14 01:13:44;;;;;;;7.00;4.65;;;;;;;18.69;38.49;101415.19;4970519;28;98687;-87
2024/01/14 01:16:09;;;;;;;6.75;4.03;;;;;;;18.71;38.67;101418.69;4969278;28;96842;-88
2024/01/14 01:18:35;;;;;;;6.45;3.88;;;;;;;18.70;38.48;101414.31;4995879;28;96877;-87
2024/01/14 01:21:00;;;;;;;6.88;3.83;;;;;;;18.70;38.52;101414.31;4964618;28;96872;-88
2024/01/14 01:23:26;;;;;;;7.25;4.47;;;;;;;18.71;38.65;101417.81;4967628;28;98828;-87
2024/01/14 01:25:51;;;;;;;7.07;4.50;;;;;;;18.71;38.25;101408.13;4977867;28;115141;-87
2024/01/14 01:28:17;;;;;;;7.82;4.82;;;;;;;18.70;38.32;101411.69;5015854;27;96893;-88
2024/01/14 01:30:43;;;;;;;7.25;4.72;;;;;;;18.70;38.18;101419.59;4969779;28;99038;-88
2024/01/14 01:33:08;;;;;;;6.80;4.20;;;;;;;18.71;38.50;101417.81;4982239;28;97484;-88
2024/01/14 01:35:34;;;;;;;6.85;4.43;;;;;;;18.70;38.21;101413.41;4981530;28;96662;-86
2024/01/14 01:37:59;;;;;;;5.53;3.33;;;;;;;18.71;38.25;101402.84;4985781;28;96632;-88
2024/01/14 01:40:24;;;;;;;8.23;5.03;;;;;;;18.70;38.41;101401.09;4986406;28;100234;-87
2024/01/14 01:42:50;;;;;;;7.50;4.65;;;;;;;18.70;38.25;101400.22;4968098;28;97749;-88
2024/01/14 01:45:15;;;;;;;6.90;4.25;;;;;;;18.70;38.35;101395.81;4983714;28;96790;-87
2024/01/14 01:47:42;;;;;;;5.57;3.75;;;;;;;18.70;38.45;101398.47;4990747;28;96693;-87
2024/01/14 01:50:08;;;;;;;8.52;4.18;;;;;;;18.70;38.44;101398.47;4985839;28;98863;-87
2024/01/14 01:52:35;;;;;;;6.43;4.63;;;;;;;18.71;38.40;101401.97;4998437;28;97010;-87
2024/01/14 01:55:01;;;;;;;5.95;4.65;;;;;;;18.71;38.30;101396.69;5012963;28;97157;-87
2024/01/14 01:57:27;;;;;;;6.95;4.53;;;;;;;18.71;38.05;101391.41;4997888;28;97089;-87
2024/01/14 01:59:53;;;;;;;7.25;4.85;;;;;;;18.70;38.21;101393.19;4971019;28;97448;-88
2024/01/14 02:02:21;;;;;;;6.78;4.43;;;;;;;18.69;38.52;101386.13;4974438;28;100040;-87
2024/01/14 02:04:47;;;;;;;7.88;5.10;;;;;;;18.71;38.36;101389.63;4991490;28;97030;-88
2024/01/14 02:07:13;;;;;;;7.60;4.20;;;;;;;18.72;38.53;101387.88;4978930;28;99940;-88
2024/01/14 02:09:39;;;;;;;7.22;4.55;;;;;;;18.71;38.20;101394.03;4966212;28;97057;-87
2024/01/14 02:12:04;;;;;;;7.82;4.97;;;;;;;18.70;38.14;101390.53;4976937;28;99075;-87
2024/01/14 02:14:30;;;;;;;6.95;4.40;;;;;;;18.70;38.27;101390.53;4983991;28;97088;-87
2024/01/14 02:16:55;;;;;;;8.57;5.43;;;;;;;18.70;38.27;101390.53;4971449;28;96972;-88
2024/01/14 02:19:21;;;;;;;7.45;4.15;;;;;;;18.68;38.27;101376.47;4976271;28;124529;-88
2024/01/14 02:21:52;;;;;;;7.30;4.18;;;;;;;18.70;38.21;101385.25;4986783;28;96829;-88
2024/01/14 02:24:28;;;;;;;8.77;4.75;;;;;;;18.70;37.93;101381.72;4968578;28;96653;-88
2024/01/14 02:26:54;;;;;;;7.90;4.18;;;;;;;18.70;38.44;101376.44;4986438;28;97851;-87
2024/01/14 02:29:20;;;;;;;9.80;5.03;;;;;;;18.70;38.30;101369.41;4981039;28;99722;-87
2024/01/14 02:31:46;;;;;;;7.55;4.65;;;;;;;18.70;38.37;101371.16;4970561;28;96803;-87
2024/01/14 02:34:12;;;;;;;7.18;4.25;;;;;;;18.70;38.07;101369.41;4959145;28;96988;-87
2024/01/14 02:36:38;;;;;;;7.35;4.75;;;;;;;18.69;38.06;101365.00;4967991;28;98904;-88
2024/01/14 02:39:04;;;;;;;7.53;4.75;;;;;;;18.69;38.41;101365.00;4984930;28;99565;-87
2024/01/14 02:41:30;;;;;;;8.10;4.32;;;;;;;18.69;38.14;101358.84;5001676;28;100371;-87
2024/01/14 02:43:56;;;;;;;7.65;4.82;;;;;;;18.70;37.91;101357.94;5010098;27;96903;-87
2024/01/14 02:46:21;;;;;;;8.55;5.15;;;;;;;18.70;38.32;101356.19;4985787;28;98140;-87
2024/01/14 02:48:47;;;;;;;6.38;4.05;;;;;;;18.70;38.23;101357.94;4981444;28;99075;-87
2024/01/14 02:51:12;;;;;;;7.28;4.38;;;;;;;18.70;37.98;101356.19;4970635;28;103776;-88
2024/01/14 02:53:38;;;;;;;6.57;3.90;;;;;;;18.70;38.27;101350.00;4977658;28;99602;-87
2024/01/14 02:56:04;;;;;;;7.80;4.32;;;;;;;18.69;38.11;101346.50;4962169;28;97001;-88
2024/01/14 02:58:29;;;;;;;7.68;4.38;;;;;;;18.70;38.07;101347.38;4962660;28;98248;-88
2024/01/14 03:00:55;;;;;;;7.75;4.63;;;;;;;18.71;38.34;101350.00;4968924;28;100195;-88
2024/01/14 03:03:21;;;;;;;7.75;4.75;;;;;;;18.70;38.18;101336.78;4982896;28;97496;-87
2024/01/14 03:05:47;;;;;;;6.88;4.25;;;;;;;18.69;38.25;101335.94;4973261;28;96987;-88
2024/01/14 03:08:13;;;;;;;9.52;5.20;;;;;;;18.69;38.28;101330.66;4979433;28;97525;-88
2024/01/14 03:10:38;;;;;;;7.38;4.65;;;;;;;18.71;38.04;101323.56;4987828;28;96625;-88
2024/01/14 03:13:04;;;;;;;6.40;4.43;;;;;;;18.69;38.07;101322.72;4982745;28;96817;-87
2024/01/14 03:15:30;;;;;;;7.57;5.20;;;;;;;18.71;37.96;101322.69;4971480;28;97600;-88
2024/01/14 03:17:55;;;;;;;6.78;4.07;;;;;;;18.70;38.38;101316.56;4988014;28;98630;-88
2024/01/14 03:20:22;;;;;;;6.85;4.22;;;;;;;18.69;38.12;101322.72;4967098;28;97657;-88
2024/01/14 03:22:48;;;;;;;7.13;4.50;;;;;;;18.69;38.13;101321.84;4969073;28;97875;-88
2024/01/14 03:25:13;;;;;;;7.25;4.43;;;;;;;18.70;38.10;101327.13;4968654;28;97518;-88
2024/01/14 03:27:39;;;;;;;6.75;4.50;;;;;;;18.69;38.33;101320.06;4965048;28;98812;-87
2024/01/14 03:30:05;;;;;;;7.18;5.10;;;;;;;18.71;38.13;101318.28;4967054;28;99049;-87
2024/01/14 03:32:30;;;;;;;6.95;4.15;;;;;;;18.70;37.99;101313.91;4972517;28;96905;-88
2024/01/14 03:34:56;;;;;;;6.57;4.10;;;;;;;18.69;38.06;101298.94;4988773;28;97047;-88
2024/01/14 03:37:21;;;;;;;7.38;3.97;;;;;;;18.70;38.11;101298.06;4964640;28;120572;-87
2024/01/14 03:39:47;;;;;;;7.07;3.97;;;;;;;18.70;37.96;101295.41;4989637;28;97023;-88
2024/01/14 03:42:12;;;;;;;8.43;4.80;;;;;;;18.70;38.04;101283.94;4985445;28;97209;-88
2024/01/14 03:44:37;;;;;;;7.70;4.93;;;;;;;18.71;38.05;101283.06;4962460;28;98033;-87
2024/01/14 03:47:05;;;;;;;6.72;4.30;;;;;;;18.69;38.05;101283.09;4987469;28;100275;-87
2024/01/14 03:49:31;;;;;;;8.93;4.97;;;;;;;18.69;37.91;101277.78;5018433;28;99612;-87
2024/01/14 03:51:56;;;;;;;7.10;3.65;;;;;;;18.70;38.11;101283.94;4990468;28;96707;-88
2024/01/14 03:54:22;;;;;;;6.95;4.20;;;;;;;18.69;37.92;101276.94;4983479;28;99040;-88
2024/01/14 03:56:47;;;;;;;7.13;4.60;;;;;;;18.69;38.08;101279.56;4985377;28;97161;-88
2024/01/14 03:59:12;;;;;;;6.30;4.30;;;;;;;18.69;37.98;101269.00;5013778;27;106903;-87
2024/01/14 04:01:38;;;;;;;7.30;4.43;;;;;;;18.68;38.01;101268.13;4985347;28;102227;-88
2024/01/14 04:04:07;;;;;;;7.75;5.13;;;;;;;18.70;37.92;101274.28;4971150;28;96897;-87
2024/01/14 04:06:32;;;;;;;7.28;4.00;;;;;;;18.69;38.01;101272.50;4971677;28;108624;-88
2024/01/14 04:08:57;;;;;;;6.90;4.53;;;;;;;18.69;37.93;101267.22;4986949;28;105219;-88
2024/01/14 04:11:23;;;;;;;7.57;4.75;;;;;;;18.69;37.98;101272.50;4986497;28;96733;-87
2024/01/14 04:13:48;;;;;;;7.20;4.95;;;;;;;18.69;38.07;101272.50;4984821;28;96903;-87
2024/01/14 04:16:14;;;;;;;7.25;4.07;;;;;;;18.70;37.87;101276.91;4980757;28;124234;-88
2024/01/14 04:18:39;;;;;;;7.65;4.72;;;;;;;18.71;38.21;101277.78;4994173;28;98527;-87
2024/01/14 04:21:04;;;;;;;8.25;4.60;;;;;;;18.68;38.18;101261.97;4981314;28;96812;-88
2024/01/14 04:23:30;;;;;;;6.60;4.13;;;;;;;18.69;38.13;101266.38;4966118;28;97044;-87
2024/01/14 04:25:56;;;;;;;7.63;4.97;;;;;;;18.69;38.21;101263.72;4986600;28;97293;-88
2024/01/14 04:28:21;;;;;;;6.72;4.10;;;;;;;18.69;37.79;101255.78;4983958;28;97321;-87
2024/01/14 04:30:46;;;;;;;6.15;3.95;;;;;;;18.69;37.84;101261.94;4979593;28;96719;-87
2024/01/14 04:33:12;;;;;;;6.47;4.65;;;;;;;18.68;37.71;101254.94;4971342;28;99228;-87
2024/01/14 04:35:37;;;;;;;6.25;4.47;;;;;;;18.69;38.17;101248.72;4983215;28;96853;-87
2024/01/14 04:38:05;;;;;;;7.05;4.40;;;;;;;18.69;38.07;101251.38;4982101;28;99525;-88
2024/01/14 04:40:31;;;;;;;7.80;4.30;;;;;;;18.69;38.21;101245.22;4981094;28;97053;-87
2024/01/14 04:42:56;;;;;;;7.43;4.72;;;;;;;18.67;38.02;101245.25;4988100;28;96937;-88
2024/01/14 04:45:22;;;;;;;7.85;4.32;;;;;;;18.70;38.00;101236.38;4985344;28;99082;-87
2024/01/14 04:47:47;;;;;;;7.18;4.32;;;;;;;18.69;37.83;101234.66;4979980;28;96923;-87
2024/01/14 04:50:13;;;;;;;7.30;4.70;;;;;;;18.70;38.16;101232.00;4966647;28;96846;-87
2024/01/14 04:52:38;;;;;;;6.50;4.90;;;;;;;18.69;37.98;101230.25;5018500;27;96916;-88
2024/01/14 04:55:04;;;;;;;8.15;4.93;;;;;;;18.69;37.91;101226.72;4978152;28;118585;-88
2024/01/14 04:57:30;;;;;;;6.75;4.35;;;;;;;18.70;37.86;101234.63;4964747;28;100588;-87
2024/01/14 04:59:55;;;;;;;7.63;4.13;;;;;;;18.69;37.92;101230.25;4985627;28;96933;-87
2024/01/14 05:02:21;;;;;;;6.50;4.30;;;;;;;18.68;37.77;101228.50;5007957;28;96985;-88
2024/01/14 05:04:46;;;;;;;7.63;4.60;;;;;;;18.69;38.00;101226.72;4986734;28;98102;-88
2024/01/14 05:07:11;;;;;;;6.65;4.07;;;;;;;18.68;37.81;101223.22;4969755;28;115120;-87
2024/01/14 05:09:37;;;;;;;6.50;5.10;;;;;;;18.68;37.80;101217.94;4968224;28;96762;-88
2024/01/14 05:12:02;;;;;;;7.35;4.90;;;;;;;18.68;38.07;101219.69;4987572;28;107162;-88
2024/01/14 05:14:28;;;;;;;6.63;4.53;;;;;;;18.68;37.67;101212.66;4967236;28;100037;-88
2024/01/14 05:16:53;;;;;;;8.05;4.13;;;;;;;18.69;37.84;101216.16;4982802;28;129556;-87
2024/01/14 05:19:19;;;;;;;7.53;5.10;;;;;;;18.69;37.93;101214.38;4969245;28;97681;-88
2024/01/14 05:21:44;;;;;;;6.78;4.85;;;;;;;18.70;37.98;101216.16;4982835;28;97291;-88
2024/01/14 05:24:10;;;;;;;6.85;4.72;;;;;;;18.69;37.79;101208.22;4985307;28;100019;-87
2024/01/14 05:26:40;;;;;;;7.18;4.43;;;;;;;18.70;37.66;101212.59;4986688;28;97506;-87
2024/01/14 05:29:06;;;;;;;7.22;4.88;;;;;;;18.67;37.72;101202.97;4979067;28;96737;-87
2024/01/14 05:31:31;;;;;;;7.13;4.22;;;;;;;18.69;37.87;101201.16;4964674;28;96714;-88
2024/01/14 05:33:56;;;;;;;6.53;4.30;;;;;;;18.69;37.68;101202.94;4977926;28;97639;-87
2024/01/14 05:36:22;;;;;;;7.32;4.80;;;;;;;18.68;37.96;101201.19;4967427;28;99037;-88
2024/01/14 05:38:47;;;;;;;6.70;4.38;;;;;;;18.70;37.82;101207.31;5002859;28;96756;-87
2024/01/14 05:41:13;;;;;;;6.38;4.40;;;;;;;18.68;37.92;101195.91;4986649;28;102937;-87
2024/01/14 05:43:39;;;;;;;5.75;3.83;;;;;;;18.68;37.70;101193.25;4983117;28;97058;-87
2024/01/14 05:46:04;;;;;;;5.65;4.35;;;;;;;18.68;37.99;101188.88;4983762;28;100464;-88
2024/01/14 05:48:29;;;;;;;7.38;4.80;;;;;;;18.68;37.83;101191.53;4986279;28;97676;-88
2024/01/14 05:50:55;;;;;;;6.72;4.57;;;;;;;18.69;37.94;101181.81;4985267;28;97619;-88
2024/01/14 05:53:20;;;;;;;6.55;4.03;;;;;;;18.69;37.71;101189.75;4985092;28;97463;-88
2024/01/14 05:55:48;;;;;;;6.60;4.05;;;;;;;18.69;37.90;101182.69;4970027;28;103776;-87
2024/01/14 05:58:16;;;;;;;7.00;4.57;;;;;;;18.68;37.94;101169.47;4982009;28;97307;-86
2024/01/14 06:00:41;;;;;;;6.13;4.22;;;;;;;18.68;38.01;101170.38;4985609;28;97182;-87
2024/01/14 06:03:07;;;;;;;5.80;3.80;;;;;;;18.70;37.80;101172.97;4972793;28;98347;-87
2024/01/14 06:05:32;;;;;;;5.63;3.85;;;;;;;18.68;37.88;101170.38;4980677;28;100038;-88
2024/01/14 06:07:58;;;;;;;6.85;4.50;;;;;;;18.67;37.61;101163.34;4983337;28;97460;-87
2024/01/14 06:10:23;;;;;;;7.80;3.80;;;;;;;18.69;37.93;101161.53;4964985;28;96713;-87
2024/01/14 06:12:49;;;;;;;6.50;4.28;;;;;;;18.69;37.78;101166.81;4968705;28;100266;-87
2024/01/14 06:15:14;;;;;;;5.90;3.42;;;;;;;18.70;37.75;101170.31;4983187;28;98325;-88
2024/01/14 06:17:40;;;;;;;6.30;4.00;;;;;;;18.69;37.87;101168.59;4979780;28;96766;-88
2024/01/14 06:20:09;;;;;;;5.65;3.80;;;;;;;18.68;37.85;101173.03;4967164;28;96911;-88
2024/01/14 06:22:34;;;;;;;5.40;3.38;;;;;;;18.69;37.59;101163.31;4989493;28;97318;-87
2024/01/14 06:25:00;;;;;;;5.38;3.45;;;;;;;18.69;37.65;101163.31;4967745;28;119757;-87
2024/01/14 06:27:26;;;;;;;5.85;3.80;;;;;;;18.67;37.60;101168.63;4992520;28;96720;-87
2024/01/14 06:29:51;;;;;;;6.13;4.07;;;;;;;18.69;37.64;101174.75;4985488;28;97127;-87
2024/01/14 06:32:17;;;;;;;6.32;4.22;;;;;;;18.68;37.86;101164.19;5008980;27;99201;-87
2024/01/14 06:34:42;;;;;;;6.47;4.35;;;;;;;18.67;37.86;101154.53;4996577;28;96682;-87
2024/01/14 06:37:08;;;;;;;4.97;3.33;;;;;;;18.67;37.81;101155.41;4970252;28;97359;-87
2024/01/14 06:39:33;;;;;;;4.95;3.70;;;;;;;18.69;37.53;101153.59;4991628;28;96873;-88
2024/01/14 06:41:59;;;;;;;6.35;4.28;;;;;;;18.69;37.72;101156.25;4971899;28;96977;-87
2024/01/14 06:44:27;;;;;;;6.18;4.43;;;;;;;18.69;37.86;101160.69;4967020;28;97709;-88
2024/01/14 06:46:52;;;;;;;6.43;3.92;;;;;;;18.69;37.46;101150.97;5002141;28;97062;-88
2024/01/14 06:49:20;;;;;;;5.28;3.55;;;;;;;18.70;37.72;101143.91;4988896;28;97771;-88
2024/01/14 06:51:46;;;;;;;4.82;3.08;;;;;;;18.69;37.90;101145.69;4999995;28;98474;-88
2024/01/14 06:54:14;;;;;;;6.55;4.22;;;;;;;18.69;37.56;101139.53;5000439;28;99450;-89
2024/01/14 06:56:47;;;;;;;5.45;3.67;;;;;;;18.68;37.75;101133.38;4960008;28;96785;-87
2024/01/14 06:59:14;;;;;;;6.57;3.88;;;;;;;18.67;37.71;101129.00;4985956;28;98917;-87
2024/01/14 07:01:42;;;;;;;5.35;3.38;;;;;;;18.69;37.79;101128.97;4981984;28;99194;-88
2024/01/14 07:04:08;;;;;;;6.63;4.35;;;;;;;18.69;38.05;101129.84;5000574;28;100395;-87
2024/01/14 07:06:33;;;;;;;5.78;3.83;;;;;;;18.67;37.43;101123.72;4971877;28;113339;-87
2024/01/14 07:08:58;;;;;;;6.38;4.22;;;;;;;18.70;37.45;101121.03;5007710;28;96786;-88
2024/01/14 07:11:24;;;;;;;6.00;3.33;;;;;;;18.69;37.83;101118.41;4961729;28;111580;-88
2024/01/14 07:13:50;;;;;;;6.38;3.88;;;;;;;18.69;37.83;101111.34;4973438;28;99477;-88
2024/01/14 07:16:15;;;;;;;5.53;3.90;;;;;;;18.68;37.57;101106.97;4988492;28;98483;-88
2024/01/14 07:18:41;;;;;;;6.60;4.18;;;;;;;18.69;37.64;101107.84;4975401;28;96810;-86
2024/01/14 07:21:12;;;;;;;5.90;4.53;;;;;;;18.68;37.98;101112.25;4975381;28;99666;-87
2024/01/14 07:23:38;;;;;;;5.28;3.35;;;;;;;18.69;37.57;101113.97;4978573;28;100847;-86
2024/01/14 07:26:11;;;;;;;6.53;3.83;;;;;;;18.68;37.78;101114.91;4968147;28;97431;-88
2024/01/14 07:28:36;;;;;;;5.97;3.78;;;;;;;18.69;37.83;101115.75;5006285;28;96848;-86
2024/01/14 07:31:01;;;;;;;7.18;3.60;;;;;;;18.68;37.80;101128.09;4989380;28;112586;-86
2024/01/14 07:33:27;;;;;;;5.35;3.95;;;;;;;18.69;37.66;101115.75;4984307;28;113497;-87
2024/01/14 07:35:52;;;;;;;5.38;3.13;;;;;;;18.69;37.76;101121.91;4987335;28;117860;-86
2024/01/14 07:38:17;;;;;;;5.90;3.75;;;;;;;18.68;37.68;101112.25;5006926;28;119115;-86
2024/01/14 07:40:43;;;;;;;6.07;3.92;;;;;;;18.68;37.61;101111.34;5003665;28;106432;-86
2024/01/14 07:43:08;;;;;;;5.50;4.28;;;;;;;18.68;37.99;101112.25;4990510;28;99061;-87
2024/01/14 07:45:35;;;;;;;5.40;4.07;;;;;;;18.68;37.46;101112.25;4998152;28;97045;-88
2024/01/14 07:48:02;;;;;;;6.22;3.53;;;;;;;18.68;37.68;101122.81;4972404;28;96767;-86
2024/01/14 07:50:27;;;;;;;4.40;3.30;;;;;;;18.68;37.87;101119.28;4990160;28;99263;-87
2024/01/14 07:52:59;;;;;;;4.90;3.53;;;;;;;18.69;37.42;101116.63;4966831;28;98108;-88
2024/01/14 07:55:25;;;;;;;5.50;3.50;;;;;;;18.69;37.64;101118.41;4982382;28;96879;-88
2024/01/14 07:57:50;;;;;;;5.45;3.80;;;;;;;18.70;37.93;101117.47;4975944;28;97282;-86
2024/01/14 08:00:16;;;;;;;5.25;3.40;;;;;;;18.68;37.67;101114.91;4979485;28;129337;-86
2024/01/14 08:02:42;;;;;;;5.32;3.45;;;;;;;18.69;37.66;101115.75;4972295;28;97354;-87
2024/01/14 08:05:09;;;;;;;6.50;3.83;;;;;;;18.68;37.64;101114.91;4988014;28;96893;-86
2024/01/14 08:07:34;;;;;;;5.25;3.28;;;;;;;18.68;37.63;101111.34;4988340;28;96802;-86
2024/01/14 08:09:59;;;;;;;6.53;3.25;;;;;;;18.67;37.46;101105.22;4979053;28;97982;-85
2024/01/14 08:12:25;;;;;;;7.03;4.03;;;;;;;18.69;37.86;101111.34;4995081;28;110530;-84
2024/01/14 08:14:50;;;;;;;5.15;3.60;;;;;;;18.70;37.42;101113.09;5006608;28;97049;-85
2024/01/14 08:17:16;;;;;;;4.72;3.00;;;;;;;18.69;37.77;101115.75;4979178;28;96831;-85
2024/01/14 08:19:42;;;;;;;5.90;2.92;;;;;;;18.70;37.76;101122.78;5011614;27;112179;-85
2024/01/14 08:22:07;;;;;;;5.80;3.42;;;;;;;18.67;37.50;101123.72;4992806;28;97382;-85
2024/01/14 08:24:35;;;;;;;6.97;3.10;;;;;;;18.69;37.60;101116.63;5008973;27;97856;-85
2024/01/14 08:27:01;;;;;;;5.00;3.33;;;;;;;18.68;37.59;101109.59;4980733;28;96899;-85
2024/01/14 08:29:26;;;;;;;5.30;3.35;;;;;;;18.70;37.56;101122.78;5010888;28;99004;-85
2024/01/14 08:31:52;;;;;;;6.05;4.03;;;;;;;18.69;37.57;101119.25;4987275;28;100891;-84
2024/01/14 08:34:17;;;;;;;5.60;3.03;;;;;;;18.69;37.57;101115.75;5005969;28;97510;-85
2024/01/14 08:36:43;;;;;;;4.80;3.45;;;;;;;18.67;37.74;101110.50;4978649;28;116217;-85
2024/01/14 08:39:08;;;;;;;5.35;3.15;;;;;;;18.68;37.74;101106.97;5009792;28;126545;-85
2024/01/14 08:41:33;;;;;;;4.85;3.10;;;;;;;18.69;37.56;101107.84;4994347;28;98428;-84
2024/01/14 08:44:00;;;;;;;5.75;3.90;;;;;;;18.69;37.80;101103.41;4993988;28;96696;-85
2024/01/14 08:46:26;;;;;;;5.30;3.60;;;;;;;18.69;37.46;101102.53;4983404;28;96749;-85
2024/01/14 08:48:52;;;;;;;5.47;3.25;;;;;;;18.68;37.57;101096.41;4975152;28;96864;-84
2024/01/14 08:51:17;;;;;;;5.22;3.63;;;;;;;18.70;37.70;101099.88;5002126;28;97216;-85
2024/01/14 08:53:43;;;;;;;5.35;3.53;;;;;;;18.69;37.78;101092.84;4975034;28;97073;-85
2024/01/14 08:56:08;;;;;;;5.90;3.03;;;;;;;18.69;37.75;101081.41;5001807;28;96888;-85
2024/01/14 08:58:33;;;;;;;5.28;2.95;;;;;;;18.69;37.73;101081.41;4958270;28;121167;-85
2024/01/14 09:00:59;;;;;;;5.53;2.92;;;;;;;18.69;37.81;101086.69;4974157;28;119977;-85
2024/01/14 09:03:24;;;;;;;7.43;3.40;;;;;;;18.69;37.81;101079.63;5007228;28;101160;-85
2024/01/14 09:05:49;;;;;;;6.38;2.75;;;;;;;18.68;37.74;101088.47;4976750;28;96840;-85
2024/01/14 09:08:16;;;;;;;6.00;3.22;;;;;;;18.68;37.59;101080.53;4963800;28;106346;-85
2024/01/14 09:10:42;;;;;;;5.10;3.08;;;;;;;18.70;37.69;101099.00;4981327;28;99754;-85
2024/01/14 09:13:07;;;;;;;5.28;3.05;;;;;;;18.68;37.36;101091.13;5006251;28;97245;-85
2024/01/14 09:15:33;;;;;;;5.70;3.10;;;;;;;18.69;37.49;101091.97;4989481;28;98274;-84
2024/01/14 09:17:59;;;;;;;4.70;3.20;;;;;;;18.69;37.74;101099.91;4983745;28;99559;-85
2024/01/14 09:20:24;;;;;;;5.45;3.30;;;;;;;18.68;37.65;101093.75;4983152;28;97482;-85
2024/01/14 09:22:50;;;;;;;6.22;3.28;;;;;;;18.68;37.56;101096.41;5005264;27;96822;-85
2024/01/14 09:25:15;;;;;;;5.18;3.17;;;;;;;18.69;37.54;101097.25;4975237;28;96863;-85
2024/01/14 09:27:41;;;;;;;6.80;3.90;;;;;;;18.69;37.67;101097.25;5018100;28;108053;-85
2024/01/14 09:30:07;;;;;;;4.82;3.42;;;;;;;18.69;37.31;101092.84;5000077;28;97769;-84
2024/01/14 09:32:33;;;;;;;5.57;3.60;;;;;;;18.70;37.52;101099.00;4989208;28;96657;-85
2024/01/14 09:34:59;;;;;;;6.10;3.05;;;;;;;18.69;37.43;101095.47;4991767;28;96764;-85
2024/01/14 09:37:24;;;;;;;4.20;2.78;;;;;;;18.69;37.67;101092.84;4974338;28;99721;-85
2024/01/14 09:39:49;;;;;;;5.15;2.97;;;;;;;18.68;37.70;101093.75;4966844;28;99372;-85
2024/01/14 09:42:22;;;;;;;5.10;2.97;;;;;;;18.69;37.66;101077.00;4970007;28;97287;-85
2024/01/14 09:44:51;;;;;;;5.18;2.88;;;;;;;18.68;37.48;101071.72;4966370;28;97035;-85
2024/01/14 09:47:17;;;;;;;4.25;2.83;;;;;;;18.69;37.57;101070.84;4975406;28;100750;-85
2024/01/14 09:49:42;;;;;;;5.25;2.90;;;;;;;18.68;37.66;101059.41;4989343;28;96912;-85
2024/01/14 09:52:10;;;;;;;5.38;3.30;;;;;;;18.68;37.29;101062.06;4984217;28;96666;-85
2024/01/14 09:54:36;;;;;;;4.97;2.75;;;;;;;18.69;37.70;101069.06;4996953;28;97248;-85
2024/01/14 09:57:11;;;;;;;5.57;2.88;;;;;;;18.68;37.61;101063.81;4972844;28;104652;-85
2024/01/14 09:59:37;;;;;;;5.32;3.55;;;;;;;18.68;37.64;101056.78;4990543;28;98658;-85
2024/01/14 10:02:03;;;;;;;5.45;3.00;;;;;;;18.68;37.36;101058.50;4976601;28;96820;-85
2024/01/14 10:04:29;;;;;;;5.60;3.53;;;;;;;18.68;37.77;101055.88;4972497;28;97425;-84
2024/01/14 10:06:56;;;;;;;4.72;2.88;;;;;;;18.69;37.46;101047.06;4978001;28;97608;-85
2024/01/14 10:09:23;;;;;;;4.97;3.42;;;;;;;18.69;37.77;101053.22;4980480;28;96678;-84
2024/01/14 10:11:49;;;;;;;5.97;3.38;;;;;;;18.69;37.56;101049.72;4998463;28;97413;-85
2024/01/14 10:14:16;;;;;;;5.30;3.33;;;;;;;18.69;37.31;101050.56;4992704;28;114084;-84
2024/01/14 10:16:41;;;;;;;6.65;3.72;;;;;;;18.68;37.33;101046.19;4998645;28;96783;-85
2024/01/14 10:19:07;;;;;;;5.60;3.45;;;;;;;18.69;37.52;101047.94;4994595;28;97786;-84
2024/01/14 10:21:32;;;;;;;5.15;3.25;;;;;;;18.71;37.30;101045.25;4983015;28;96835;-85
2024/01/14 10:24:00;;;;;;;6.40;3.10;;;;;;;18.70;37.58;101035.56;4970857;28;97147;-85
2024/01/14 10:26:25;;;;;;;4.80;2.60;;;;;;;18.70;37.38;101040.88;4987720;28;98045;-85
2024/01/14 10:28:51;;;;;;;4.65;3.33;;;;;;;18.70;37.42;101040.88;4996690;28;97607;-84
2024/01/14 10:31:19;;;;;;;5.03;3.42;;;;;;;18.69;37.50;101029.44;4971219;28;97922;-85
2024/01/14 10:33:44;;;;;;;6.10;3.70;;;;;;;18.68;37.27;101033.00;5007389;27;102078;-84
2024/01/14 10:36:10;;;;;;;5.35;3.58;;;;;;;18.69;37.52;101018.88;4979324;28;99443;-85
2024/01/14 10:38:36;;;;;;;4.70;3.05;;;;;;;18.69;37.63;101021.50;5003152;28;97541;-84
2024/01/14 10:41:03;;;;;;;4.97;3.15;;;;;;;18.70;37.35;101017.09;5023608;28;97472;-85
2024/01/14 10:43:29;;;;;;;5.68;3.63;;;;;;;18.69;37.21;101008.28;4997412;28;97319;-85
2024/01/14 10:45:57;;;;;;;5.03;3.45;;;;;;;18.69;37.31;101000.38;5010159;28;96849;-85
2024/01/14 10:48:27;;;;;;;5.45;3.60;;;;;;;18.70;37.33;100995.94;4973455;28;96751;-85
2024/01/14 10:50:56;;;;;;;4.70;2.58;;;;;;;18.70;37.38;100995.94;4997386;28;96740;-84
2024/01/14 10:53:30;;;;;;;4.72;2.78;;;;;;;18.69;37.52;100997.72;4963085;28;97356;-84
2024/01/14 10:56:03;;;;;;;4.22;3.10;;;;;;;18.69;37.42;100992.44;4986720;28;97315;-85
2024/01/14 10:58:32;;;;;;;5.35;3.35;;;;;;;18.69;37.58;100987.16;4978220;28;96989;-85
2024/01/14 11:01:03;;;;;;;4.78;3.20;;;;;;;18.69;37.38;100987.16;5009138;28;97458;-85
2024/01/14 11:03:29;;;;;;;4.90;3.42;;;;;;;18.69;37.66;100975.72;4994918;28;97505;-85
2024/01/14 11:05:55;;;;;;;4.97;3.45;;;;;;;18.68;37.46;100972.22;4981786;28;97097;-85
2024/01/14 11:08:23;;;;;;;4.93;2.50;;;;;;;18.70;37.42;100972.16;5010351;28;100092;-84
2024/01/14 11:10:53;;;;;;;5.07;3.45;;;;;;;18.69;37.42;100966.03;4968076;28;97409;-84
2024/01/14 11:13:21;;;;;;;4.70;3.47;;;;;;;18.69;37.33;100959.88;5007685;28;96877;-84
2024/01/14 11:15:52;;;;;;;4.88;3.17;;;;;;;18.69;37.56;100955.44;5018249;27;96852;-85
2024/01/14 11:18:39;;;;;;;4.97;3.08;;;;;;;18.69;37.36;100950.16;4959239;28;98388;-85